Adell, Wisconsin
Current Conditions -  °F | °C
As of 10:53 PM on Wednesday 17 Dec 2014 (Local Time) from KSBM Reporting Station
Overcast Overcast  
Wind Chill: -11°   Ceiling: 2200
Heat Index: -5°   Visibility: 10mi
Dew Point: -9°   Wind: 9mph
Humidity: 74%   Direction: 280°W
Pressure: 30.25"   Gusts: NA
Location:  43.62°N, 87.95°W
Report Text: KSBM 180453Z AUTO 28008KT 10SM OVC022 M05/M09 A3025 RMK AO2 SLP254 T10501089
Loading
Personal Weather Stations






























Interactive Weather Map New forecast layout! Learn more

10-Day Weather Forecast

Advertisements
Track Severe Weather on mobile